createdAt,value
2018-03-22T00:01:53.305Z,3.90
2018-03-22T00:04:20.747Z,3.80
2018-03-22T00:06:48.203Z,3.80
2018-03-22T00:09:15.699Z,3.90
2018-03-22T00:11:43.155Z,3.90
2018-03-22T00:14:10.612Z,3.90
2018-03-22T00:16:38.059Z,3.90
2018-03-22T00:19:05.628Z,3.90
2018-03-22T00:21:33.088Z,3.80
2018-03-22T00:24:00.532Z,3.80
2018-03-22T00:26:27.979Z,3.80
2018-03-22T00:28:55.446Z,3.70
2018-03-22T00:31:26.743Z,3.70
2018-03-22T00:33:54.968Z,3.70
2018-03-22T00:36:22.402Z,3.60
2018-03-22T00:38:49.878Z,3.70
2018-03-22T00:41:17.833Z,3.70
2018-03-22T00:43:45.282Z,3.70
2018-03-22T00:46:12.724Z,3.70
2018-03-22T00:48:40.182Z,3.70
2018-03-22T00:51:07.670Z,3.70
2018-03-22T00:53:35.113Z,3.70
2018-03-22T00:56:02.542Z,3.70
2018-03-22T00:58:29.975Z,3.70
2018-03-22T01:00:57.403Z,3.70
2018-03-22T01:03:24.838Z,3.70
2018-03-22T01:05:52.274Z,3.70
2018-03-22T01:08:19.786Z,3.80
2018-03-22T01:10:47.384Z,3.80
2018-03-22T01:13:14.765Z,3.70
2018-03-22T01:15:42.226Z,3.70
2018-03-22T01:18:09.663Z,3.70
2018-03-22T01:20:37.086Z,3.70
2018-03-22T01:23:05.307Z,3.80
2018-03-22T01:25:32.762Z,3.70
2018-03-22T01:28:00.206Z,3.70
2018-03-22T01:30:36.536Z,3.70
2018-03-22T01:33:04.746Z,3.60
2018-03-22T01:35:32.191Z,3.50
2018-03-22T01:37:59.631Z,3.60
2018-03-22T01:40:27.855Z,3.50
2018-03-22T01:42:55.500Z,3.50
2018-03-22T01:45:22.932Z,3.50
2018-03-22T01:47:51.118Z,3.30
2018-03-22T01:50:18.551Z,3.30
2018-03-22T01:52:58.578Z,3.20
2018-03-22T01:55:26.119Z,3.10
2018-03-22T01:57:53.652Z,3.10
2018-03-22T02:00:21.065Z,3.00
2018-03-22T02:02:49.275Z,2.80
2018-03-22T02:05:16.736Z,2.80
2018-03-22T02:07:44.147Z,2.80
2018-03-22T02:10:12.346Z,2.70
2018-03-22T02:12:39.778Z,2.60
2018-03-22T02:15:07.994Z,2.60
2018-03-22T02:17:35.434Z,2.50
2018-03-22T02:20:02.938Z,2.50
2018-03-22T02:22:30.386Z,2.50
2018-03-22T02:24:57.832Z,2.60
2018-03-22T02:27:25.275Z,2.50
2018-03-22T02:29:52.728Z,2.50
2018-03-22T02:32:20.168Z,2.50
2018-03-22T02:34:47.778Z,2.50
2018-03-22T02:37:15.234Z,2.40
2018-03-22T02:39:42.663Z,2.40
2018-03-22T02:42:10.111Z,2.40
2018-03-22T02:44:37.553Z,2.50
2018-03-22T02:47:05.005Z,2.50
2018-03-22T02:49:33.202Z,2.60
2018-03-22T02:52:00.690Z,2.50
2018-03-22T02:54:28.134Z,2.50
2018-03-22T02:56:55.599Z,2.50
2018-03-22T02:59:23.035Z,2.50
2018-03-22T03:01:50.506Z,2.50
2018-03-22T03:04:17.945Z,2.50
2018-03-22T03:06:45.435Z,2.50
2018-03-22T03:09:12.867Z,2.50
2018-03-22T03:11:40.434Z,2.50
2018-03-22T03:14:07.867Z,2.50
2018-03-22T03:16:35.347Z,2.50
2018-03-22T03:19:02.807Z,2.50
2018-03-22T03:21:30.250Z,2.50
2018-03-22T03:23:57.684Z,2.40
2018-03-22T03:26:25.127Z,2.40
2018-03-22T03:28:52.566Z,2.40
2018-03-22T03:31:20.794Z,2.50
2018-03-22T03:33:48.264Z,2.40
2018-03-22T03:36:15.710Z,2.30
2018-03-22T03:38:43.149Z,2.30
2018-03-22T03:41:10.577Z,2.40
2018-03-22T03:43:38.164Z,2.30
2018-03-22T03:46:05.620Z,2.30
2018-03-22T03:48:33.045Z,2.20
2018-03-22T03:51:01.238Z,2.30
2018-03-22T03:53:28.729Z,2.30
2018-03-22T03:55:56.170Z,2.30
2018-03-22T03:58:23.611Z,2.30
2018-03-22T04:00:51.077Z,2.20
2018-03-22T04:03:18.490Z,2.20
2018-03-22T04:05:46.692Z,2.10
2018-03-22T04:08:14.138Z,2.10
2018-03-22T04:10:41.572Z,2.10
2018-03-22T04:13:09.006Z,2.00
2018-03-22T04:15:36.535Z,2.00
2018-03-22T04:18:04.019Z,1.90
2018-03-22T04:20:31.458Z,1.90
2018-03-22T04:22:58.921Z,2.00
2018-03-22T04:25:26.462Z,2.00
2018-03-22T04:27:53.902Z,2.00
2018-03-22T04:30:21.477Z,2.00
2018-03-22T04:32:48.918Z,2.00
2018-03-22T04:35:16.348Z,2.00
2018-03-22T04:37:44.551Z,2.00
2018-03-22T04:40:11.973Z,1.90
2018-03-22T04:42:39.408Z,2.00
2018-03-22T04:45:06.841Z,2.00
2018-03-22T04:47:34.282Z,2.00
2018-03-22T04:50:01.741Z,2.10
2018-03-22T04:52:29.170Z,2.10
2018-03-22T04:54:56.602Z,2.10
2018-03-22T04:57:24.083Z,2.20
2018-03-22T04:59:52.275Z,2.30
2018-03-22T05:02:19.744Z,2.20
2018-03-22T05:04:47.157Z,2.30
2018-03-22T05:07:15.363Z,2.30
2018-03-22T05:09:42.799Z,2.30
2018-03-22T05:12:10.250Z,2.40
2018-03-22T05:14:37.682Z,2.50
2018-03-22T05:17:05.138Z,2.50
2018-03-22T05:19:32.585Z,2.50
2018-03-22T05:22:00.027Z,2.60
2018-03-22T05:24:27.478Z,2.60
2018-03-22T05:26:55.673Z,2.70
2018-03-22T05:29:23.114Z,2.60
2018-03-22T05:31:50.544Z,2.70
2018-03-22T05:34:17.974Z,2.70
2018-03-22T05:36:46.174Z,2.80
2018-03-22T05:39:13.622Z,2.70
2018-03-22T05:41:41.058Z,2.80
2018-03-22T05:44:09.254Z,2.90
2018-03-22T05:46:36.688Z,2.80
2018-03-22T05:49:04.897Z,2.90
2018-03-22T05:51:32.323Z,2.90
2018-03-22T05:53:59.759Z,3.00
2018-03-22T05:56:27.979Z,3.00
2018-03-22T05:58:55.413Z,3.00
2018-03-22T06:01:22.847Z,3.10
2018-03-22T06:03:51.051Z,3.10
2018-03-22T06:06:18.493Z,3.00
2018-03-22T06:08:46.821Z,3.10
2018-03-22T06:11:15.018Z,3.10
2018-03-22T06:13:42.476Z,3.00
2018-03-22T06:16:09.980Z,3.00
2018-03-22T06:18:37.424Z,3.10
2018-03-22T06:21:04.858Z,3.10
2018-03-22T06:23:33.070Z,3.10
2018-03-22T06:26:00.515Z,3.10
2018-03-22T06:28:28.001Z,3.10
2018-03-22T06:30:55.539Z,3.10
2018-03-22T06:33:22.975Z,3.10
2018-03-22T06:35:50.417Z,3.20
2018-03-22T06:38:18.610Z,3.20
2018-03-22T06:40:46.592Z,3.20
2018-03-22T06:43:14.010Z,3.30
2018-03-22T06:45:42.218Z,3.40
2018-03-22T06:48:09.882Z,3.40
2018-03-22T06:50:37.329Z,3.40
2018-03-22T06:53:04.811Z,3.40
2018-03-22T06:55:32.456Z,3.40
2018-03-22T06:57:59.879Z,3.50
2018-03-22T07:00:28.106Z,3.50
2018-03-22T07:02:55.646Z,3.40
2018-03-22T07:05:23.100Z,3.60
2018-03-22T07:07:50.506Z,3.60
2018-03-22T07:10:18.014Z,3.60
2018-03-22T07:12:45.459Z,3.70
2018-03-22T07:15:12.903Z,3.70
2018-03-22T07:17:40.343Z,3.80
2018-03-22T07:20:08.589Z,3.90
2018-03-22T07:22:36.011Z,3.80
2018-03-22T07:25:03.477Z,3.90
2018-03-22T07:27:30.918Z,3.90
2018-03-22T07:29:58.365Z,4.00
2018-03-22T07:32:25.836Z,4.00
2018-03-22T07:34:53.263Z,4.00
2018-03-22T07:37:21.475Z,4.20
2018-03-22T07:39:48.920Z,4.20
2018-03-22T07:42:16.484Z,4.20
2018-03-22T07:44:48.937Z,4.20
2018-03-22T07:47:16.371Z,4.20
2018-03-22T07:49:43.887Z,4.20
2018-03-22T07:52:11.351Z,4.20
2018-03-22T07:54:39.086Z,4.20
2018-03-22T07:57:06.548Z,4.20
2018-03-22T07:59:33.977Z,4.20
2018-03-22T08:02:02.186Z,4.30
2018-03-22T08:04:29.646Z,4.30
2018-03-22T08:06:57.098Z,4.30
2018-03-22T08:09:24.647Z,4.30
2018-03-22T08:11:52.204Z,4.30
2018-03-22T08:14:19.633Z,4.30
2018-03-22T08:16:47.937Z,4.30
2018-03-22T08:19:15.438Z,4.30
2018-03-22T08:21:42.951Z,4.40
2018-03-22T08:24:10.403Z,4.50
2018-03-22T08:26:37.850Z,4.50
2018-03-22T08:29:05.283Z,4.50
2018-03-22T08:31:33.522Z,4.50
2018-03-22T08:34:00.945Z,4.40
2018-03-22T08:36:28.397Z,4.50
2018-03-22T08:38:55.863Z,4.60
2018-03-22T08:41:23.289Z,4.60
2018-03-22T08:43:51.564Z,4.80
2018-03-22T08:46:19.022Z,4.70
2018-03-22T08:48:47.237Z,4.80
2018-03-22T08:51:14.790Z,4.80
2018-03-22T08:53:42.226Z,4.80
2018-03-22T08:56:10.431Z,4.80
2018-03-22T08:58:37.873Z,4.80
2018-03-22T09:01:05.311Z,4.90
2018-03-22T09:03:33.502Z,4.90
2018-03-22T09:06:00.936Z,4.90
2018-03-22T09:08:28.415Z,4.90
2018-03-22T09:10:55.919Z,4.90
2018-03-22T09:13:23.294Z,5.00
2018-03-22T09:15:51.608Z,4.90
2018-03-22T09:18:19.102Z,4.90
2018-03-22T09:20:47.376Z,5.00
2018-03-22T09:23:14.834Z,5.00
2018-03-22T09:25:42.357Z,5.10
2018-03-22T09:28:09.841Z,5.10
2018-03-22T09:30:37.267Z,5.20
2018-03-22T09:33:04.724Z,5.10
2018-03-22T09:35:32.168Z,5.20
2018-03-22T09:37:59.626Z,5.30
2018-03-22T09:40:27.070Z,5.30
2018-03-22T09:42:54.526Z,5.30
2018-03-22T09:45:22.005Z,5.30
2018-03-22T09:47:49.437Z,5.40
2018-03-22T09:50:16.883Z,5.30
2018-03-22T09:52:45.092Z,5.40
2018-03-22T09:55:12.523Z,5.30
2018-03-22T09:57:40.726Z,5.50
2018-03-22T10:00:08.177Z,5.40
2018-03-22T10:02:35.652Z,5.50
2018-03-22T10:05:03.098Z,5.50
2018-03-22T10:07:30.543Z,5.60
2018-03-22T10:09:58.001Z,5.60
2018-03-22T10:12:25.447Z,5.70
2018-03-22T10:14:52.880Z,5.80
2018-03-22T10:17:20.322Z,5.80
2018-03-22T10:19:47.775Z,5.80
2018-03-22T10:22:15.224Z,5.80
2018-03-22T10:24:42.678Z,5.80
2018-03-22T10:27:10.273Z,5.80
2018-03-22T10:29:38.687Z,5.80
2018-03-22T10:32:06.110Z,6.00
2018-03-22T10:34:34.338Z,6.10
2018-03-22T10:37:01.793Z,6.00
2018-03-22T10:39:29.247Z,6.10
2018-03-22T10:41:56.735Z,6.10
2018-03-22T10:44:24.133Z,6.10
2018-03-22T10:46:51.562Z,6.20
2018-03-22T10:49:18.991Z,6.30
2018-03-22T10:51:46.627Z,6.30
2018-03-22T10:54:14.058Z,6.30
2018-03-22T10:56:41.486Z,6.40
2018-03-22T10:59:09.707Z,6.40
2018-03-22T11:01:42.854Z,6.30
2018-03-22T11:04:11.074Z,6.40
2018-03-22T11:06:38.506Z,6.30
2018-03-22T11:09:05.935Z,6.40
2018-03-22T11:11:34.217Z,6.40
2018-03-22T11:14:02.525Z,6.40
2018-03-22T11:16:30.085Z,6.30
2018-03-22T11:18:57.567Z,6.40
2018-03-22T11:21:25.139Z,6.50
2018-03-22T11:23:52.590Z,6.50
2018-03-22T11:26:20.042Z,6.40
2018-03-22T11:28:47.486Z,6.40
2018-03-22T11:31:14.942Z,6.60
2018-03-22T11:33:42.408Z,6.60
2018-03-22T11:36:09.944Z,6.60
2018-03-22T11:38:37.397Z,6.70
2018-03-22T11:41:04.858Z,6.70
2018-03-22T11:43:32.283Z,6.70
2018-03-22T11:46:00.583Z,6.70
2018-03-22T11:48:28.006Z,6.70
2018-03-22T11:50:56.205Z,6.90
2018-03-22T11:53:23.635Z,6.90
2018-03-22T11:55:51.870Z,6.90
2018-03-22T11:58:19.354Z,6.80
2018-03-22T12:00:47.591Z,6.90
2018-03-22T12:03:15.027Z,6.90
2018-03-22T12:05:42.463Z,6.90
2018-03-22T12:08:09.886Z,6.80
2018-03-22T12:10:37.319Z,6.80
2018-03-22T12:13:04.754Z,6.90
2018-03-22T12:15:32.313Z,6.90
2018-03-22T12:17:59.726Z,6.90
2018-03-22T12:20:27.924Z,6.80
2018-03-22T12:22:55.403Z,6.80
2018-03-22T12:25:22.842Z,6.70
2018-03-22T12:27:51.059Z,6.60
2018-03-22T12:30:18.502Z,6.60
2018-03-22T12:32:46.045Z,6.70
2018-03-22T12:35:13.467Z,6.60
2018-03-22T12:37:42.006Z,6.50
2018-03-22T12:40:09.473Z,6.50
2018-03-22T12:42:36.996Z,6.50
2018-03-22T12:45:04.419Z,6.50
2018-03-22T12:47:32.639Z,6.50
2018-03-22T12:50:00.194Z,6.40
2018-03-22T12:52:27.616Z,6.40
2018-03-22T12:54:55.814Z,6.50
2018-03-22T12:57:23.273Z,6.40
2018-03-22T12:59:50.696Z,6.40
2018-03-22T13:02:19.009Z,6.40
2018-03-22T13:04:46.488Z,6.30
2018-03-22T13:07:13.946Z,6.40
2018-03-22T13:09:41.375Z,6.40
2018-03-22T13:12:08.867Z,6.40
2018-03-22T13:14:36.391Z,6.40
2018-03-22T13:17:03.882Z,6.40
2018-03-22T13:19:31.315Z,6.40
2018-03-22T13:22:00.003Z,6.40
2018-03-22T13:24:27.548Z,6.40
2018-03-22T13:26:55.004Z,6.40
2018-03-22T13:29:22.431Z,6.50
2018-03-22T13:31:50.626Z,6.40
2018-03-22T13:34:18.090Z,6.30
2018-03-22T13:36:45.576Z,6.40
2018-03-22T13:39:13.011Z,6.40
2018-03-22T13:41:40.523Z,6.50
2018-03-22T13:44:08.016Z,6.40
2018-03-22T13:46:35.439Z,6.30
2018-03-22T13:49:03.748Z,6.30
2018-03-22T13:51:31.230Z,6.30
2018-03-22T13:53:58.680Z,6.30
2018-03-22T13:56:26.116Z,6.30
2018-03-22T13:58:53.593Z,6.20
2018-03-22T14:01:21.030Z,6.20
2018-03-22T14:03:48.486Z,6.20
2018-03-22T14:06:15.931Z,6.20
2018-03-22T14:08:43.404Z,6.20
2018-03-22T14:11:10.850Z,6.20
2018-03-22T14:13:38.298Z,6.10
2018-03-22T14:16:05.727Z,6.00
2018-03-22T14:18:34.046Z,6.00
2018-03-22T14:21:01.450Z,6.00
2018-03-22T14:23:28.972Z,6.00
2018-03-22T14:25:57.130Z,6.00
2018-03-22T14:28:24.795Z,5.90
2018-03-22T14:30:52.363Z,5.90
2018-03-22T14:33:19.931Z,5.90
2018-03-22T14:35:47.469Z,5.90
2018-03-22T14:38:15.130Z,5.90
2018-03-22T14:40:42.653Z,6.00
2018-03-22T14:43:10.166Z,6.00
2018-03-22T14:45:37.606Z,6.00
2018-03-22T14:48:05.166Z,6.00
2018-03-22T14:50:32.618Z,6.00
2018-03-22T14:53:00.175Z,6.00
2018-03-22T14:55:27.637Z,6.00
2018-03-22T14:57:55.062Z,5.90
2018-03-22T15:00:22.481Z,5.80
2018-03-22T15:02:50.000Z,5.80
2018-03-22T15:05:17.455Z,5.70
2018-03-22T15:07:44.915Z,5.70
2018-03-22T15:10:12.334Z,5.70
2018-03-22T15:12:40.542Z,5.70
2018-03-22T15:15:08.103Z,5.60
2018-03-22T15:17:35.508Z,5.70
2018-03-22T15:20:03.019Z,5.60
2018-03-22T15:22:30.440Z,5.60
2018-03-22T15:24:59.571Z,5.70
2018-03-22T15:27:26.982Z,5.60
2018-03-22T15:29:54.867Z,5.60
2018-03-22T15:32:22.295Z,5.50
2018-03-22T15:34:50.571Z,5.40
2018-03-22T15:37:18.794Z,5.30
2018-03-22T15:39:46.323Z,5.40
2018-03-22T15:42:14.511Z,5.40
2018-03-22T15:44:41.987Z,5.40
2018-03-22T15:47:09.485Z,5.40
2018-03-22T15:49:36.914Z,5.40
2018-03-22T15:52:04.464Z,5.40
2018-03-22T15:54:31.926Z,5.50
2018-03-22T15:57:01.292Z,5.40
2018-03-22T15:59:29.527Z,5.60
2018-03-22T16:01:56.999Z,5.50
2018-03-22T16:04:24.852Z,5.60
2018-03-22T16:06:52.279Z,5.70
2018-03-22T16:09:19.714Z,5.60
2018-03-22T16:11:47.139Z,5.60
2018-03-22T16:14:15.779Z,5.50
2018-03-22T16:16:43.201Z,5.50
2018-03-22T16:19:10.686Z,5.50
2018-03-22T16:21:38.138Z,5.60
2018-03-22T16:24:05.602Z,5.60
2018-03-22T16:26:33.394Z,5.60
2018-03-22T16:29:00.830Z,5.60
2018-03-22T16:31:28.274Z,5.60
2018-03-22T16:33:55.750Z,5.50
2018-03-22T16:36:23.204Z,5.60
2018-03-22T16:38:50.626Z,5.50
2018-03-22T16:41:18.590Z,5.60
2018-03-22T16:43:46.025Z,5.50
2018-03-22T16:46:13.471Z,5.50
2018-03-22T16:48:40.929Z,5.40
2018-03-22T16:51:08.362Z,5.40
2018-03-22T16:53:35.802Z,5.50
2018-03-22T16:56:03.251Z,5.50
2018-03-22T16:58:30.684Z,5.60
2018-03-22T17:00:58.247Z,5.60
2018-03-22T17:03:25.836Z,5.60
2018-03-22T17:05:53.249Z,5.60
2018-03-22T17:08:21.560Z,5.50
2018-03-22T17:10:48.998Z,5.50
2018-03-22T17:13:16.470Z,5.50
2018-03-22T17:15:43.911Z,5.50
2018-03-22T17:18:11.344Z,5.50
2018-03-22T17:20:39.559Z,5.40
2018-03-22T17:23:07.006Z,5.40
2018-03-22T17:25:34.442Z,5.40
2018-03-22T17:28:01.927Z,5.30
2018-03-22T17:30:29.383Z,5.30
2018-03-22T17:32:56.828Z,5.30
2018-03-22T17:35:24.275Z,5.30
2018-03-22T17:37:51.739Z,5.20
2018-03-22T17:40:19.936Z,5.10
2018-03-22T17:42:48.200Z,5.10
2018-03-22T17:45:15.758Z,5.10
2018-03-22T17:47:48.150Z,5.10
2018-03-22T17:50:15.585Z,5.10
2018-03-22T17:52:43.100Z,5.10
2018-03-22T17:55:10.563Z,5.10
2018-03-22T17:57:38.075Z,5.10
2018-03-22T18:00:05.444Z,5.00
2018-03-22T18:02:32.901Z,5.10
2018-03-22T18:05:01.141Z,5.10
2018-03-22T18:07:28.587Z,5.00
2018-03-22T18:09:56.032Z,5.00
2018-03-22T18:12:23.707Z,4.90
2018-03-22T18:14:51.289Z,4.90
2018-03-22T18:17:19.035Z,4.90
2018-03-22T18:19:46.543Z,4.90
2018-03-22T18:22:14.935Z,5.00
2018-03-22T18:24:42.512Z,4.90
2018-03-22T18:27:10.096Z,4.90
2018-03-22T18:29:37.763Z,4.90
2018-03-22T18:32:05.258Z,4.90
2018-03-22T18:34:32.854Z,4.90
2018-03-22T18:37:01.093Z,5.00
2018-03-22T18:39:28.611Z,4.90
2018-03-22T18:41:56.274Z,5.00
2018-03-22T18:44:23.828Z,5.00
2018-03-22T18:46:51.338Z,4.90
2018-03-22T18:49:18.927Z,4.80
2018-03-22T18:51:46.459Z,4.80
2018-03-22T18:54:13.972Z,4.70
2018-03-22T18:56:41.478Z,4.70
2018-03-22T18:59:08.941Z,4.70
2018-03-22T19:01:36.551Z,4.60
2018-03-22T19:04:04.044Z,4.60
2018-03-22T19:06:31.662Z,4.60
2018-03-22T19:08:59.230Z,4.60
2018-03-22T19:11:26.839Z,4.60
2018-03-22T19:13:55.118Z,4.40
2018-03-22T19:16:22.685Z,4.40
2018-03-22T19:18:50.159Z,4.40
2018-03-22T19:21:17.631Z,4.50
2018-03-22T19:23:45.124Z,4.50
2018-03-22T19:26:12.752Z,4.40
2018-03-22T19:28:40.413Z,4.40
2018-03-22T19:31:07.856Z,4.40
2018-03-22T19:33:35.330Z,4.40
2018-03-22T19:36:02.823Z,4.40
2018-03-22T19:38:30.430Z,4.50
2018-03-22T19:40:58.002Z,4.40
2018-03-22T19:43:25.590Z,4.40
2018-03-22T19:45:53.225Z,4.40
2018-03-22T19:48:20.649Z,4.40
2018-03-22T19:50:48.859Z,4.40
2018-03-22T19:53:16.307Z,4.30
2018-03-22T19:55:43.745Z,4.40
2018-03-22T19:58:12.348Z,4.30
2018-03-22T20:00:39.779Z,4.30
2018-03-22T20:03:07.975Z,4.30
2018-03-22T20:05:35.536Z,4.30
2018-03-22T20:08:03.094Z,4.30
2018-03-22T20:10:30.550Z,4.20
2018-03-22T20:12:57.970Z,4.20
2018-03-22T20:15:25.983Z,4.20
2018-03-22T20:17:53.574Z,4.20
2018-03-22T20:20:21.041Z,4.30
2018-03-22T20:22:48.507Z,4.20
2018-03-22T20:25:15.993Z,4.30
2018-03-22T20:27:43.414Z,4.20
2018-03-22T20:30:11.633Z,4.20
2018-03-22T20:32:39.107Z,4.20
2018-03-22T20:35:06.751Z,4.20
2018-03-22T20:37:34.239Z,4.20
2018-03-22T20:40:01.679Z,4.10
2018-03-22T20:42:29.121Z,4.00
2018-03-22T20:44:56.678Z,4.00
2018-03-22T20:47:24.229Z,4.10
2018-03-22T20:49:51.724Z,4.10
2018-03-22T20:52:19.252Z,4.00
2018-03-22T20:54:46.728Z,4.00
2018-03-22T20:57:14.165Z,4.00
2018-03-22T20:59:41.621Z,4.00
2018-03-22T21:02:09.040Z,4.00
2018-03-22T21:04:37.250Z,4.00
2018-03-22T21:07:04.683Z,4.00
2018-03-22T21:09:32.111Z,4.10
2018-03-22T21:11:59.561Z,4.10
2018-03-22T21:14:26.987Z,4.10
2018-03-22T21:16:54.449Z,4.00
2018-03-22T21:19:21.884Z,4.00
2018-03-22T21:21:49.343Z,4.00
2018-03-22T21:24:16.751Z,3.90
2018-03-22T21:26:44.174Z,3.90
2018-03-22T21:29:11.601Z,3.90
2018-03-22T21:31:39.022Z,3.90
2018-03-22T21:34:07.247Z,3.90
2018-03-22T21:36:34.681Z,3.90
2018-03-22T21:39:02.154Z,3.90
2018-03-22T21:41:30.314Z,3.90
2018-03-22T21:44:09.488Z,3.90
2018-03-22T21:46:36.909Z,4.00
2018-03-22T21:49:04.346Z,3.90
2018-03-22T21:51:31.780Z,3.80
2018-03-22T21:53:59.213Z,3.70
2018-03-22T21:56:26.739Z,3.70
2018-03-22T21:58:54.150Z,3.70
2018-03-22T22:01:22.346Z,3.70
2018-03-22T22:03:49.774Z,3.60
2018-03-22T22:06:17.199Z,3.60
2018-03-22T22:08:44.745Z,3.60
2018-03-22T22:11:12.162Z,3.60
2018-03-22T22:13:39.597Z,2.20
2018-03-22T22:16:07.786Z,3.80
2018-03-22T22:18:36.001Z,3.80
2018-03-22T22:21:03.442Z,3.70
2018-03-22T22:23:30.882Z,3.70
2018-03-22T22:25:58.323Z,3.70
2018-03-22T22:28:26.515Z,3.60
2018-03-22T22:30:54.006Z,3.50
2018-03-22T22:33:21.429Z,3.60
2018-03-22T22:35:48.847Z,3.60
2018-03-22T22:38:16.283Z,3.60
2018-03-22T22:40:43.712Z,3.60
2018-03-22T22:43:11.140Z,3.70
2018-03-22T22:45:39.345Z,3.60
2018-03-22T22:48:06.795Z,3.50
2018-03-22T22:50:34.221Z,3.60
2018-03-22T22:53:02.405Z,3.50
2018-03-22T22:55:30.608Z,3.60
2018-03-22T22:57:58.037Z,3.50
2018-03-22T23:00:25.480Z,3.50
2018-03-22T23:02:53.667Z,3.50
2018-03-22T23:05:21.118Z,3.40
2018-03-22T23:07:49.319Z,3.50
2018-03-22T23:10:16.811Z,3.40
2018-03-22T23:12:44.268Z,3.50
2018-03-22T23:15:11.706Z,3.40
2018-03-22T23:17:39.143Z,3.40
2018-03-22T23:20:06.577Z,3.30
2018-03-22T23:22:34.790Z,3.30
2018-03-22T23:25:02.237Z,3.30
2018-03-22T23:27:29.657Z,3.40
2018-03-22T23:29:57.861Z,3.20
2018-03-22T23:32:25.286Z,3.20
2018-03-22T23:34:53.494Z,3.20
2018-03-22T23:37:20.997Z,3.20
2018-03-22T23:39:48.434Z,3.20
2018-03-22T23:42:15.871Z,3.20
2018-03-22T23:44:43.308Z,3.10
2018-03-22T23:47:10.767Z,3.20
2018-03-22T23:49:38.213Z,3.20
2018-03-22T23:52:05.645Z,3.20
2018-03-22T23:54:33.845Z,3.20
2018-03-22T23:57:01.348Z,3.10
2018-03-22T23:59:28.902Z,3.10
